sensor_id;sensor_type;location;lat;lon;timestamp;pressure;altitude;pressure_sealevel;temperature;humidity
44351;BME280;62766;62.622;17.912;2022-11-21T00:00:30;101200.74;;;-0.17;71.62
44351;BME280;62766;62.622;17.912;2022-11-21T00:02:59;101204.27;;;-0.25;72.74
44351;BME280;62766;62.622;17.912;2022-11-21T00:05:28;101198.27;;;-0.30;73.44
44351;BME280;62766;62.622;17.912;2022-11-21T00:07:57;101200.08;;;-0.24;73.84
44351;BME280;62766;62.622;17.912;2022-11-21T00:10:26;101193.39;;;-0.36;74.11
44351;BME280;62766;62.622;17.912;2022-11-21T00:12:55;101200.16;;;-0.33;74.99
44351;BME280;62766;62.622;17.912;2022-11-21T00:15:25;101191.65;;;-0.35;75.28
44351;BME280;62766;62.622;17.912;2022-11-21T00:17:53;101186.13;;;-0.36;75.49
44351;BME280;62766;62.622;17.912;2022-11-21T00:20:22;101183.84;;;-0.26;75.74
44351;BME280;62766;62.622;17.912;2022-11-21T00:22:50;101199.04;;;-0.29;75.65
44351;BME280;62766;62.622;17.912;2022-11-21T00:25:18;101198.18;;;-0.09;75.68
44351;BME280;62766;62.622;17.912;2022-11-21T00:27:47;101196.40;;;-0.24;75.78
44351;BME280;62766;62.622;17.912;2022-11-21T00:30:17;101203.21;;;-0.22;75.62
44351;BME280;62766;62.622;17.912;2022-11-21T00:32:46;101199.28;;;-0.26;75.83
44351;BME280;62766;62.622;17.912;2022-11-21T00:35:14;101206.05;;;-0.19;76.18
44351;BME280;62766;62.622;17.912;2022-11-21T00:37:43;101209.54;;;-0.11;76.06
44351;BME280;62766;62.622;17.912;2022-11-21T00:40:11;101212.08;;;-0.12;76.17
44351;BME280;62766;62.622;17.912;2022-11-21T00:42:40;101209.27;;;-0.06;75.93
44351;BME280;62766;62.622;17.912;2022-11-21T00:45:09;101211.43;;;-0.01;75.12
44351;BME280;62766;62.622;17.912;2022-11-21T00:47:38;101211.46;;;0.06;70.63
44351;BME280;62766;62.622;17.912;2022-11-21T00:50:08;101208.75;;;0.07;68.63
44351;BME280;62766;62.622;17.912;2022-11-21T00:52:37;101209.03;;;0.18;68.51
44351;BME280;62766;62.622;17.912;2022-11-21T00:55:06;101204.85;;;0.22;68.92
44351;BME280;62766;62.622;17.912;2022-11-21T00:57:34;101209.40;;;0.17;69.39
44351;BME280;62766;62.622;17.912;2022-11-21T01:00:04;101210.50;;;0.15;70.17
44351;BME280;62766;62.622;17.912;2022-11-21T01:02:33;101208.05;;;0.11;70.60
44351;BME280;62766;62.622;17.912;2022-11-21T01:05:01;101212.64;;;0.04;70.68
44351;BME280;62766;62.622;17.912;2022-11-21T01:07:30;101212.57;;;0.16;70.89
44351;BME280;62766;62.622;17.912;2022-11-21T01:09:58;101219.53;;;0.01;71.14
44351;BME280;62766;62.622;17.912;2022-11-21T01:12:27;101219.50;;;0.03;70.25
44351;BME280;62766;62.622;17.912;2022-11-21T01:14:55;101218.42;;;0.00;70.08
44351;BME280;62766;62.622;17.912;2022-11-21T01:17:24;101222.97;;;0.15;69.44
44351;BME280;62766;62.622;17.912;2022-11-21T01:19:52;101213.92;;;0.18;69.02
44351;BME280;62766;62.622;17.912;2022-11-21T01:22:21;101216.87;;;0.15;68.41
44351;BME280;62766;62.622;17.912;2022-11-21T01:24:49;101215.33;;;0.32;68.15
44351;BME280;62766;62.622;17.912;2022-11-21T01:27:18;101216.23;;;0.25;67.53
44351;BME280;62766;62.622;17.912;2022-11-21T01:29:46;101214.63;;;0.24;66.77
44351;BME280;62766;62.622;17.912;2022-11-21T01:32:15;101217.54;;;0.28;66.32
44351;BME280;62766;62.622;17.912;2022-11-21T01:34:45;101220.31;;;0.21;66.21
44351;BME280;62766;62.622;17.912;2022-11-21T01:37:13;101226.29;;;0.30;66.63
44351;BME280;62766;62.622;17.912;2022-11-21T01:39:42;101237.40;;;0.38;67.64
44351;BME280;62766;62.622;17.912;2022-11-21T01:42:11;101239.21;;;0.14;69.04
44351;BME280;62766;62.622;17.912;2022-11-21T01:44:49;101241.05;;;-0.01;70.95
44351;BME280;62766;62.622;17.912;2022-11-21T01:47:19;101240.27;;;-0.01;72.70
44351;BME280;62766;62.622;17.912;2022-11-21T01:49:49;101236.43;;;-0.10;72.70
44351;BME280;62766;62.622;17.912;2022-11-21T01:52:22;101235.80;;;-0.35;73.45
44351;BME280;62766;62.622;17.912;2022-11-21T01:54:55;101232.97;;;-0.32;74.95
44351;BME280;62766;62.622;17.912;2022-11-21T01:57:26;101233.95;;;-0.29;74.84
44351;BME280;62766;62.622;17.912;2022-11-21T01:59:59;101235.93;;;-0.25;75.12
44351;BME280;62766;62.622;17.912;2022-11-21T02:02:33;101233.02;;;-0.32;75.21
44351;BME280;62766;62.622;17.912;2022-11-21T02:05:06;101231.39;;;-0.17;74.18
44351;BME280;62766;62.622;17.912;2022-11-21T02:07:38;101234.52;;;-0.13;73.90
44351;BME280;62766;62.622;17.912;2022-11-21T02:10:08;101234.21;;;-0.14;73.32
44351;BME280;62766;62.622;17.912;2022-11-21T02:12:42;101230.85;;;-0.14;71.13
44351;BME280;62766;62.622;17.912;2022-11-21T02:15:12;101231.25;;;-0.09;69.48
44351;BME280;62766;62.622;17.912;2022-11-21T02:17:40;101231.11;;;-0.17;68.76
44351;BME280;62766;62.622;17.912;2022-11-21T02:20:11;101227.93;;;-0.11;67.76
44351;BME280;62766;62.622;17.912;2022-11-21T02:22:47;101229.55;;;-0.06;66.47
44351;BME280;62766;62.622;17.912;2022-11-21T02:25:21;101230.66;;;0.00;64.89
44351;BME280;62766;62.622;17.912;2022-11-21T02:27:55;101231.68;;;0.08;64.11
44351;BME280;62766;62.622;17.912;2022-11-21T02:30:27;101224.13;;;0.09;63.25
44351;BME280;62766;62.622;17.912;2022-11-21T02:32:56;101225.34;;;0.04;62.57
44351;BME280;62766;62.622;17.912;2022-11-21T02:35:25;101237.02;;;0.04;62.35
44351;BME280;62766;62.622;17.912;2022-11-21T02:37:57;101237.16;;;0.14;62.56
44351;BME280;62766;62.622;17.912;2022-11-21T02:40:30;101239.30;;;0.18;62.28
44351;BME280;62766;62.622;17.912;2022-11-21T02:43:05;101237.60;;;0.20;62.07
44351;BME280;62766;62.622;17.912;2022-11-21T02:45:38;101241.20;;;0.21;61.84
44351;BME280;62766;62.622;17.912;2022-11-21T02:48:09;101244.32;;;0.10;61.99
44351;BME280;62766;62.622;17.912;2022-11-21T02:50:38;101248.42;;;0.24;62.23
44351;BME280;62766;62.622;17.912;2022-11-21T02:53:09;101253.96;;;0.14;63.06
44351;BME280;62766;62.622;17.912;2022-11-21T02:55:38;101256.83;;;0.07;64.52
44351;BME280;62766;62.622;17.912;2022-11-21T02:58:06;101256.02;;;0.15;66.31
44351;BME280;62766;62.622;17.912;2022-11-21T03:00:36;101253.92;;;0.15;66.71
44351;BME280;62766;62.622;17.912;2022-11-21T03:03:05;101245.42;;;0.21;66.39
44351;BME280;62766;62.622;17.912;2022-11-21T03:05:34;101255.80;;;0.10;65.74
44351;BME280;62766;62.622;17.912;2022-11-21T03:08:03;101254.75;;;0.21;65.90
44351;BME280;62766;62.622;17.912;2022-11-21T03:10:33;101260.84;;;0.13;65.61
44351;BME280;62766;62.622;17.912;2022-11-21T03:13:01;101259.39;;;-0.04;65.82
44351;BME280;62766;62.622;17.912;2022-11-21T03:15:31;101262.38;;;0.02;66.59
44351;BME280;62766;62.622;17.912;2022-11-21T03:18:01;101261.59;;;-0.01;67.41
44351;BME280;62766;62.622;17.912;2022-11-21T03:20:32;101252.36;;;0.03;68.07
44351;BME280;62766;62.622;17.912;2022-11-21T03:23:01;101255.71;;;-0.06;66.90
44351;BME280;62766;62.622;17.912;2022-11-21T03:25:30;101252.15;;;-0.12;66.73
44351;BME280;62766;62.622;17.912;2022-11-21T03:27:58;101249.08;;;-0.07;65.26
44351;BME280;62766;62.622;17.912;2022-11-21T03:30:27;101251.90;;;-0.04;63.65
44351;BME280;62766;62.622;17.912;2022-11-21T03:32:56;101251.48;;;0.03;63.09
44351;BME280;62766;62.622;17.912;2022-11-21T03:35:25;101248.20;;;-0.02;62.88
44351;BME280;62766;62.622;17.912;2022-11-21T03:37:54;101246.34;;;0.13;62.58
44351;BME280;62766;62.622;17.912;2022-11-21T03:40:22;101249.58;;;0.22;62.46
44351;BME280;62766;62.622;17.912;2022-11-21T03:42:51;101247.60;;;0.15;61.54
44351;BME280;62766;62.622;17.912;2022-11-21T03:45:19;101254.31;;;0.19;61.05
44351;BME280;62766;62.622;17.912;2022-11-21T03:47:48;101262.10;;;0.24;60.97
44351;BME280;62766;62.622;17.912;2022-11-21T03:50:17;101264.46;;;0.27;60.50
44351;BME280;62766;62.622;17.912;2022-11-21T03:52:47;101274.05;;;0.21;59.98
44351;BME280;62766;62.622;17.912;2022-11-21T03:55:16;101275.23;;;0.35;58.84
44351;BME280;62766;62.622;17.912;2022-11-21T03:57:45;101277.98;;;0.35;58.12
44351;BME280;62766;62.622;17.912;2022-11-21T04:00:15;101276.50;;;0.35;57.15
44351;BME280;62766;62.622;17.912;2022-11-21T04:02:44;101272.42;;;0.35;56.90
44351;BME280;62766;62.622;17.912;2022-11-21T04:05:13;101282.78;;;0.37;56.12
44351;BME280;62766;62.622;17.912;2022-11-21T04:07:44;101286.60;;;0.31;56.41
44351;BME280;62766;62.622;17.912;2022-11-21T04:10:14;101289.28;;;0.36;56.72
44351;BME280;62766;62.622;17.912;2022-11-21T04:12:44;101294.43;;;0.39;56.11
44351;BME280;62766;62.622;17.912;2022-11-21T04:15:13;101292.10;;;0.40;56.06
44351;BME280;62766;62.622;17.912;2022-11-21T04:17:41;101290.02;;;0.41;55.92
44351;BME280;62766;62.622;17.912;2022-11-21T04:20:10;101293.08;;;0.48;55.43
44351;BME280;62766;62.622;17.912;2022-11-21T04:22:40;101296.45;;;0.45;54.51
44351;BME280;62766;62.622;17.912;2022-11-21T04:25:10;101295.40;;;0.44;53.26
44351;BME280;62766;62.622;17.912;2022-11-21T04:27:38;101296.45;;;0.38;53.07
44351;BME280;62766;62.622;17.912;2022-11-21T04:30:08;101301.37;;;0.24;53.60
44351;BME280;62766;62.622;17.912;2022-11-21T04:32:37;101304.61;;;0.20;54.22
44351;BME280;62766;62.622;17.912;2022-11-21T04:35:06;101305.99;;;0.27;54.74
44351;BME280;62766;62.622;17.912;2022-11-21T04:37:38;101299.41;;;0.29;55.31
44351;BME280;62766;62.622;17.912;2022-11-21T04:40:07;101304.13;;;0.38;55.13
44351;BME280;62766;62.622;17.912;2022-11-21T04:42:40;101309.31;;;0.25;54.25
44351;BME280;62766;62.622;17.912;2022-11-21T04:45:10;101307.37;;;0.37;53.42
44351;BME280;62766;62.622;17.912;2022-11-21T04:47:41;101306.31;;;0.36;52.91
44351;BME280;62766;62.622;17.912;2022-11-21T04:50:11;101309.69;;;0.38;52.88
44351;BME280;62766;62.622;17.912;2022-11-21T04:52:40;101312.14;;;0.47;53.02
44351;BME280;62766;62.622;17.912;2022-11-21T04:55:08;101321.03;;;0.34;53.68
44351;BME280;62766;62.622;17.912;2022-11-21T04:57:37;101321.47;;;0.40;54.70
44351;BME280;62766;62.622;17.912;2022-11-21T05:03:16;101326.72;;;0.15;56.25
44351;BME280;62766;62.622;17.912;2022-11-21T05:05:45;101330.10;;;0.35;56.47
44351;BME280;62766;62.622;17.912;2022-11-21T05:08:13;101333.88;;;0.38;55.94
44351;BME280;62766;62.622;17.912;2022-11-21T05:10:42;101335.42;;;0.22;55.36
44351;BME280;62766;62.622;17.912;2022-11-21T05:13:12;101334.39;;;0.45;54.72
44351;BME280;62766;62.622;17.912;2022-11-21T05:15:41;101337.89;;;0.34;54.95
44351;BME280;62766;62.622;17.912;2022-11-21T05:18:11;101336.11;;;0.46;54.09
44351;BME280;62766;62.622;17.912;2022-11-21T05:20:40;101333.65;;;0.26;53.38
44351;BME280;62766;62.622;17.912;2022-11-21T05:23:08;101337.48;;;0.42;52.99
44351;BME280;62766;62.622;17.912;2022-11-21T05:25:37;101337.45;;;0.34;52.88
44351;BME280;62766;62.622;17.912;2022-11-21T05:28:05;101338.96;;;0.28;53.02
44351;BME280;62766;62.622;17.912;2022-11-21T05:30:34;101337.05;;;0.32;52.92
44351;BME280;62766;62.622;17.912;2022-11-21T05:33:03;101338.90;;;0.28;52.40
44351;BME280;62766;62.622;17.912;2022-11-21T05:35:31;101343.41;;;0.39;52.95
44351;BME280;62766;62.622;17.912;2022-11-21T05:37:59;101343.14;;;0.31;53.26
44351;BME280;62766;62.622;17.912;2022-11-21T05:40:28;101336.98;;;0.26;53.03
44351;BME280;62766;62.622;17.912;2022-11-21T05:42:56;101339.85;;;0.42;53.08
44351;BME280;62766;62.622;17.912;2022-11-21T05:45:25;101343.20;;;0.42;53.24
44351;BME280;62766;62.622;17.912;2022-11-21T05:47:54;101343.40;;;0.45;52.79
44351;BME280;62766;62.622;17.912;2022-11-21T05:50:22;101350.06;;;0.36;52.51
44351;BME280;62766;62.622;17.912;2022-11-21T05:52:50;101355.20;;;0.33;52.87
44351;BME280;62766;62.622;17.912;2022-11-21T05:55:19;101352.17;;;0.55;52.89
44351;BME280;62766;62.622;17.912;2022-11-21T05:57:47;101350.82;;;0.38;53.33
44351;BME280;62766;62.622;17.912;2022-11-21T06:00:17;101351.85;;;0.42;52.86
44351;BME280;62766;62.622;17.912;2022-11-21T06:02:46;101357.76;;;0.39;53.14
44351;BME280;62766;62.622;17.912;2022-11-21T06:05:15;101361.27;;;0.33;53.52
44351;BME280;62766;62.622;17.912;2022-11-21T06:07:44;101358.81;;;0.55;53.34
44351;BME280;62766;62.622;17.912;2022-11-21T06:10:12;101359.71;;;0.40;53.33
44351;BME280;62766;62.622;17.912;2022-11-21T06:12:42;101359.84;;;0.29;53.68
44351;BME280;62766;62.622;17.912;2022-11-21T06:15:11;101362.00;;;0.46;53.34
44351;BME280;62766;62.622;17.912;2022-11-21T06:17:40;101368.30;;;0.41;53.58
44351;BME280;62766;62.622;17.912;2022-11-21T06:20:10;101368.81;;;0.35;53.55
44351;BME280;62766;62.622;17.912;2022-11-21T06:22:38;101374.87;;;0.49;52.72
44351;BME280;62766;62.622;17.912;2022-11-21T06:25:07;101373.56;;;0.37;52.20
44351;BME280;62766;62.622;17.912;2022-11-21T06:27:36;101384.34;;;0.48;52.51
44351;BME280;62766;62.622;17.912;2022-11-21T06:30:05;101386.16;;;0.51;52.42
44351;BME280;62766;62.622;17.912;2022-11-21T06:32:36;101379.50;;;0.42;51.83
44351;BME280;62766;62.622;17.912;2022-11-21T06:35:05;101381.81;;;0.35;51.60
44351;BME280;62766;62.622;17.912;2022-11-21T06:37:35;101379.85;;;0.34;51.73
44351;BME280;62766;62.622;17.912;2022-11-21T06:40:04;101381.39;;;0.21;51.54
44351;BME280;62766;62.622;17.912;2022-11-21T06:42:34;101382.59;;;0.24;51.83
44351;BME280;62766;62.622;17.912;2022-11-21T06:45:03;101382.34;;;0.27;51.65
44351;BME280;62766;62.622;17.912;2022-11-21T06:47:32;101385.56;;;0.28;51.62
44351;BME280;62766;62.622;17.912;2022-11-21T06:50:01;101386.41;;;0.36;51.51
44351;BME280;62766;62.622;17.912;2022-11-21T06:52:31;101388.33;;;0.36;51.83
44351;BME280;62766;62.622;17.912;2022-11-21T06:55:00;101387.13;;;0.36;52.04
44351;BME280;62766;62.622;17.912;2022-11-21T06:57:28;101395.03;;;0.18;51.99
44351;BME280;62766;62.622;17.912;2022-11-21T06:59:57;101397.12;;;0.39;51.62
44351;BME280;62766;62.622;17.912;2022-11-21T07:02:25;101403.86;;;0.39;51.59
44351;BME280;62766;62.622;17.912;2022-11-21T07:04:54;101409.85;;;0.40;51.65
44351;BME280;62766;62.622;17.912;2022-11-21T07:07:22;101415.79;;;0.41;52.03
44351;BME280;62766;62.622;17.912;2022-11-21T07:09:51;101422.24;;;0.38;51.76
44351;BME280;62766;62.622;17.912;2022-11-21T07:12:19;101418.95;;;0.44;52.14
44351;BME280;62766;62.622;17.912;2022-11-21T07:14:49;101417.68;;;0.51;52.11
44351;BME280;62766;62.622;17.912;2022-11-21T07:17:18;101423.17;;;0.40;52.29
44351;BME280;62766;62.622;17.912;2022-11-21T07:19:46;101419.84;;;0.47;52.45
44351;BME280;62766;62.622;17.912;2022-11-21T07:22:15;101423.00;;;0.38;52.44
44351;BME280;62766;62.622;17.912;2022-11-21T07:24:43;101426.20;;;0.46;52.24
44351;BME280;62766;62.622;17.912;2022-11-21T07:27:12;101436.39;;;0.47;52.05
44351;BME280;62766;62.622;17.912;2022-11-21T07:29:43;101438.42;;;0.49;52.28
44351;BME280;62766;62.622;17.912;2022-11-21T07:32:13;101440.96;;;0.50;52.09
44351;BME280;62766;62.622;17.912;2022-11-21T07:34:43;101447.72;;;0.44;52.01
44351;BME280;62766;62.622;17.912;2022-11-21T07:37:11;101445.68;;;0.29;52.01
44351;BME280;62766;62.622;17.912;2022-11-21T07:39:40;101450.42;;;0.32;52.12
44351;BME280;62766;62.622;17.912;2022-11-21T07:42:10;101456.02;;;0.37;52.22
44351;BME280;62766;62.622;17.912;2022-11-21T07:44:38;101456.79;;;0.32;52.38
44351;BME280;62766;62.622;17.912;2022-11-21T07:47:12;101454.01;;;0.33;52.41
44351;BME280;62766;62.622;17.912;2022-11-21T07:49:42;101452.01;;;0.45;52.78
44351;BME280;62766;62.622;17.912;2022-11-21T07:52:11;101453.03;;;0.37;52.18
44351;BME280;62766;62.622;17.912;2022-11-21T07:54:41;101458.06;;;0.41;52.12
44351;BME280;62766;62.622;17.912;2022-11-21T07:57:09;101455.54;;;0.46;52.49
44351;BME280;62766;62.622;17.912;2022-11-21T07:59:38;101458.78;;;0.55;52.58
44351;BME280;62766;62.622;17.912;2022-11-21T08:02:06;101461.40;;;0.46;52.30
44351;BME280;62766;62.622;17.912;2022-11-21T08:04:34;101457.23;;;0.48;52.19
44351;BME280;62766;62.622;17.912;2022-11-21T08:07:03;101459.48;;;0.58;51.68
44351;BME280;62766;62.622;17.912;2022-11-21T08:09:32;101462.40;;;0.45;51.89
44351;BME280;62766;62.622;17.912;2022-11-21T08:12:00;101459.34;;;0.47;50.59
44351;BME280;62766;62.622;17.912;2022-11-21T08:14:28;101460.28;;;0.59;49.93
44351;BME280;62766;62.622;17.912;2022-11-21T08:16:57;101461.86;;;0.44;50.45
44351;BME280;62766;62.622;17.912;2022-11-21T08:19:26;101463.47;;;0.52;50.63
44351;BME280;62766;62.622;17.912;2022-11-21T08:21:54;101463.19;;;0.51;50.27
44351;BME280;62766;62.622;17.912;2022-11-21T08:24:23;101458.76;;;0.57;50.13
44351;BME280;62766;62.622;17.912;2022-11-21T08:26:51;101462.74;;;0.52;50.21
44351;BME280;62766;62.622;17.912;2022-11-21T08:29:20;101466.85;;;0.41;49.95
44351;BME280;62766;62.622;17.912;2022-11-21T08:31:48;101463.12;;;0.40;50.37
44351;BME280;62766;62.622;17.912;2022-11-21T08:34:17;101461.19;;;0.52;50.78
44351;BME280;62766;62.622;17.912;2022-11-21T08:36:45;101455.05;;;0.60;50.89
44351;BME280;62766;62.622;17.912;2022-11-21T08:39:14;101456.57;;;0.69;51.00
44351;BME280;62766;62.622;17.912;2022-11-21T08:41:43;101459.49;;;0.64;50.55
44351;BME280;62766;62.622;17.912;2022-11-21T08:44:11;101457.58;;;0.68;50.59
44351;BME280;62766;62.622;17.912;2022-11-21T08:46:40;101458.34;;;0.74;50.65
44351;BME280;62766;62.622;17.912;2022-11-21T08:49:08;101456.56;;;0.72;50.73
44351;BME280;62766;62.622;17.912;2022-11-21T08:51:36;101458.53;;;0.72;50.35
44351;BME280;62766;62.622;17.912;2022-11-21T08:54:05;101457.35;;;0.73;50.42
44351;BME280;62766;62.622;17.912;2022-11-21T08:56:34;101459.74;;;0.73;50.31
44351;BME280;62766;62.622;17.912;2022-11-21T08:59:03;101458.11;;;0.67;50.53
44351;BME280;62766;62.622;17.912;2022-11-21T09:01:32;101458.02;;;0.82;50.29
44351;BME280;62766;62.622;17.912;2022-11-21T09:04:00;101462.83;;;0.74;50.37
44351;BME280;62766;62.622;17.912;2022-11-21T09:06:29;101463.27;;;0.90;50.31
44351;BME280;62766;62.622;17.912;2022-11-21T09:08:58;101464.55;;;0.69;50.47
44351;BME280;62766;62.622;17.912;2022-11-21T09:11:26;101465.60;;;0.74;50.25
44351;BME280;62766;62.622;17.912;2022-11-21T09:13:55;101461.04;;;0.74;50.60
44351;BME280;62766;62.622;17.912;2022-11-21T09:16:23;101461.05;;;0.65;51.02
44351;BME280;62766;62.622;17.912;2022-11-21T09:18:52;101461.30;;;0.78;51.80
44351;BME280;62766;62.622;17.912;2022-11-21T09:21:21;101459.11;;;0.73;52.38
44351;BME280;62766;62.622;17.912;2022-11-21T09:23:49;101463.22;;;0.83;52.58
44351;BME280;62766;62.622;17.912;2022-11-21T09:26:18;101463.72;;;0.67;52.54
44351;BME280;62766;62.622;17.912;2022-11-21T09:28:46;101460.75;;;0.79;52.87
44351;BME280;62766;62.622;17.912;2022-11-21T09:31:15;101461.40;;;0.68;53.18
44351;BME280;62766;62.622;17.912;2022-11-21T09:33:43;101465.18;;;0.77;52.94
44351;BME280;62766;62.622;17.912;2022-11-21T09:36:12;101463.45;;;0.73;52.42
44351;BME280;62766;62.622;17.912;2022-11-21T09:38:41;101466.84;;;0.65;52.52
44351;BME280;62766;62.622;17.912;2022-11-21T09:41:24;101466.19;;;0.74;51.81
44351;BME280;62766;62.622;17.912;2022-11-21T09:44:02;101465.30;;;0.81;51.28
44351;BME280;62766;62.622;17.912;2022-11-21T09:46:41;101468.32;;;0.73;50.76
44351;BME280;62766;62.622;17.912;2022-11-21T09:49:13;101470.96;;;0.73;50.26
44351;BME280;62766;62.622;17.912;2022-11-21T09:51:44;101467.17;;;0.91;50.42
44351;BME280;62766;62.622;17.912;2022-11-21T09:54:17;101472.35;;;0.77;50.44
44351;BME280;62766;62.622;17.912;2022-11-21T09:56:47;101466.82;;;0.82;50.41
44351;BME280;62766;62.622;17.912;2022-11-21T09:59:26;101468.91;;;0.86;50.41
44351;BME280;62766;62.622;17.912;2022-11-21T10:01:56;101470.08;;;0.84;50.81
44351;BME280;62766;62.622;17.912;2022-11-21T10:04:25;101466.10;;;0.66;51.33
44351;BME280;62766;62.622;17.912;2022-11-21T10:07:00;101468.32;;;0.90;51.77
44351;BME280;62766;62.622;17.912;2022-11-21T10:09:43;101459.99;;;0.75;51.69
44351;BME280;62766;62.622;17.912;2022-11-21T10:12:20;101459.02;;;0.67;51.95
44351;BME280;62766;62.622;17.912;2022-11-21T10:14:59;101453.10;;;0.79;51.68
44351;BME280;62766;62.622;17.912;2022-11-21T10:17:37;101452.07;;;0.90;51.11
44351;BME280;62766;62.622;17.912;2022-11-21T10:20:26;101445.32;;;0.93;50.86
44351;BME280;62766;62.622;17.912;2022-11-21T10:23:11;101445.43;;;0.93;50.96
44351;BME280;62766;62.622;17.912;2022-11-21T10:25:54;101443.28;;;1.00;50.76
44351;BME280;62766;62.622;17.912;2022-11-21T10:28:30;101444.29;;;1.01;50.54
44351;BME280;62766;62.622;17.912;2022-11-21T10:31:03;101443.42;;;1.04;50.11
44351;BME280;62766;62.622;17.912;2022-11-21T10:33:38;101440.70;;;0.97;49.97
44351;BME280;62766;62.622;17.912;2022-11-21T10:36:22;101438.17;;;0.97;49.76
44351;BME280;62766;62.622;17.912;2022-11-21T10:38:59;101434.87;;;1.02;49.95
44351;BME280;62766;62.622;17.912;2022-11-21T10:41:38;101434.01;;;0.83;49.81
44351;BME280;62766;62.622;17.912;2022-11-21T10:44:13;101426.89;;;0.86;50.05
44351;BME280;62766;62.622;17.912;2022-11-21T10:46:54;101430.85;;;0.85;50.22
44351;BME280;62766;62.622;17.912;2022-11-21T10:49:31;101423.70;;;0.81;50.30
44351;BME280;62766;62.622;17.912;2022-11-21T10:52:08;101418.92;;;0.81;50.61
44351;BME280;62766;62.622;17.912;2022-11-21T10:55:02;101419.98;;;0.84;51.23
44351;BME280;62766;62.622;17.912;2022-11-21T10:57:36;101414.98;;;0.81;51.75
44351;BME280;62766;62.622;17.912;2022-11-21T11:03:33;101406.81;;;0.66;52.18
44351;BME280;62766;62.622;17.912;2022-11-21T11:06:01;101402.15;;;0.61;52.31
44351;BME280;62766;62.622;17.912;2022-11-21T11:08:49;101398.30;;;0.66;52.51
44351;BME280;62766;62.622;17.912;2022-11-21T11:11:21;101391.97;;;0.69;52.63
44351;BME280;62766;62.622;17.912;2022-11-21T11:13:56;101391.95;;;0.80;52.67
44351;BME280;62766;62.622;17.912;2022-11-21T11:16:26;101393.56;;;0.79;52.80
44351;BME280;62766;62.622;17.912;2022-11-21T11:18:58;101396.13;;;0.69;52.46
44351;BME280;62766;62.622;17.912;2022-11-21T11:21:29;101394.70;;;0.85;52.05
44351;BME280;62766;62.622;17.912;2022-11-21T11:24:20;101390.75;;;0.72;51.36
44351;BME280;62766;62.622;17.912;2022-11-21T11:26:51;101385.92;;;0.65;51.33
44351;BME280;62766;62.622;17.912;2022-11-21T11:29:25;101382.79;;;0.62;50.93
44351;BME280;62766;62.622;17.912;2022-11-21T11:31:55;101376.36;;;0.65;50.56
44351;BME280;62766;62.622;17.912;2022-11-21T11:34:27;101379.55;;;0.65;50.37
44351;BME280;62766;62.622;17.912;2022-11-21T11:37:08;101380.36;;;0.63;50.01
44351;BME280;62766;62.622;17.912;2022-11-21T11:39:40;101377.22;;;0.66;50.16
44351;BME280;62766;62.622;17.912;2022-11-21T11:43:26;101383.87;;;0.59;50.63
44351;BME280;62766;62.622;17.912;2022-11-21T11:46:07;101383.41;;;0.58;50.71
44351;BME280;62766;62.622;17.912;2022-11-21T11:48:42;101377.04;;;0.52;50.45
44351;BME280;62766;62.622;17.912;2022-11-21T11:51:19;101373.88;;;0.42;50.59
44351;BME280;62766;62.622;17.912;2022-11-21T11:53:52;101373.23;;;0.42;51.17
44351;BME280;62766;62.622;17.912;2022-11-21T11:56:26;101375.02;;;0.45;51.52
44351;BME280;62766;62.622;17.912;2022-11-21T11:59:00;101374.16;;;0.40;51.85
44351;BME280;62766;62.622;17.912;2022-11-21T12:01:39;101372.14;;;0.41;52.33
44351;BME280;62766;62.622;17.912;2022-11-21T12:04:12;101367.78;;;0.38;52.69
44351;BME280;62766;62.622;17.912;2022-11-21T12:06:47;101368.83;;;0.34;52.91
44351;BME280;62766;62.622;17.912;2022-11-21T12:09:23;101362.80;;;0.46;53.26
44351;BME280;62766;62.622;17.912;2022-11-21T12:11:58;101360.78;;;0.42;53.54
44351;BME280;62766;62.622;17.912;2022-11-21T12:14:50;101356.01;;;0.43;53.84
44351;BME280;62766;62.622;17.912;2022-11-21T12:17:29;101351.82;;;0.50;53.96
44351;BME280;62766;62.622;17.912;2022-11-21T12:20:04;101353.92;;;0.52;53.70
44351;BME280;62766;62.622;17.912;2022-11-21T12:22:39;101346.61;;;0.43;53.25
44351;BME280;62766;62.622;17.912;2022-11-21T12:25:10;101350.32;;;0.45;52.99
44351;BME280;62766;62.622;17.912;2022-11-21T12:27:41;101345.92;;;0.50;52.87
44351;BME280;62766;62.622;17.912;2022-11-21T12:30:32;101345.65;;;0.56;52.94
44351;BME280;62766;62.622;17.912;2022-11-21T12:33:05;101340.36;;;0.45;52.93
44351;BME280;62766;62.622;17.912;2022-11-21T12:36:20;101333.44;;;0.37;52.76
44351;BME280;62766;62.622;17.912;2022-11-21T12:39:08;101337.19;;;0.30;52.93
44351;BME280;62766;62.622;17.912;2022-11-21T12:41:44;101339.19;;;0.15;52.99
44351;BME280;62766;62.622;17.912;2022-11-21T12:44:28;101333.52;;;0.16;52.86
44351;BME280;62766;62.622;17.912;2022-11-21T12:47:15;101328.64;;;0.24;52.84
44351;BME280;62766;62.622;17.912;2022-11-21T12:49:53;101325.19;;;0.24;52.81
44351;BME280;62766;62.622;17.912;2022-11-21T12:52:30;101324.60;;;0.14;53.28
44351;BME280;62766;62.622;17.912;2022-11-21T12:55:10;101321.33;;;0.13;53.43
44351;BME280;62766;62.622;17.912;2022-11-21T12:57:49;101324.84;;;0.08;53.29
44351;BME280;62766;62.622;17.912;2022-11-21T13:00:27;101313.91;;;0.09;53.37
44351;BME280;62766;62.622;17.912;2022-11-21T13:03:18;101309.01;;;0.15;53.53
44351;BME280;62766;62.622;17.912;2022-11-21T13:05:52;101312.39;;;0.06;53.82
44351;BME280;62766;62.622;17.912;2022-11-21T13:08:26;101303.82;;;0.14;54.23
44351;BME280;62766;62.622;17.912;2022-11-21T13:11:03;101301.64;;;0.14;54.50
44351;BME280;62766;62.622;17.912;2022-11-21T13:13:35;101296.13;;;0.05;54.51
44351;BME280;62766;62.622;17.912;2022-11-21T13:16:08;101295.04;;;-0.04;54.23